Time;durP1;ratioP1;P1;durP2;ratioP2;P2;SDS_P1;SDS_P2;PMS_P1;PMS_P2;Temp;Humidity;BMP_temperature;BMP_pressure;BME280_temperature;BME280_humidity;BME280_pressure;Samples;Min_cycle;Max_cycle;Signal;HPM_P1;HPM_P2
2023/06/27 00:00:47;;;;;;;0.10;0.10;;;;;;;19.76;46.96;100890.00;5076855;28;20036;-82
2023/06/27 00:03:13;;;;;;;0.10;0.10;;;;;;;19.75;46.56;100891.03;5075141;28;20340;-82
2023/06/27 00:05:38;;;;;;;0.10;0.10;;;;;;;19.73;46.25;100884.03;5076200;28;20516;-82
2023/06/27 00:08:06;;;;;;;0.00;0.00;;;;;;;19.70;46.52;100887.09;5073699;28;20032;-81
2023/06/27 00:10:32;;;;;;;0.10;0.10;;;;;;;19.65;46.82;100891.41;5075282;28;20086;-82
2023/06/27 00:12:57;;;;;;;0.00;0.00;;;;;;;19.61;48.08;100890.13;5074741;28;20028;-81
2023/06/27 00:15:22;;;;;;;0.10;0.10;;;;;;;19.56;48.26;100897.97;5076018;28;20040;-82
2023/06/27 00:17:48;;;;;;;0.10;0.10;;;;;;;19.55;46.96;100897.16;5074666;28;20029;-80
2023/06/27 00:20:14;;;;;;;0.10;0.10;;;;;;;19.52;47.76;100900.22;5073666;28;20049;-80
2023/06/27 00:22:39;;;;;;;0.10;0.10;;;;;;;19.50;48.44;100899.59;5074186;28;20539;-81
2023/06/27 00:25:05;;;;;;;0.10;0.10;;;;;;;19.49;47.99;100897.94;5073065;28;20060;-82
2023/06/27 00:27:31;;;;;;;0.10;0.10;;;;;;;19.52;47.49;100897.53;5076316;28;20029;-82
2023/06/27 00:29:56;;;;;;;0.00;0.00;;;;;;;19.51;47.49;100907.44;5076491;28;20043;-82
2023/06/27 00:32:21;;;;;;;0.00;0.00;;;;;;;19.46;48.80;100901.84;5074745;28;20116;-82
2023/06/27 00:34:46;;;;;;;0.07;0.07;;;;;;;19.43;48.17;100904.94;5076070;28;20401;-82
2023/06/27 00:37:12;;;;;;;0.10;0.10;;;;;;;19.47;47.66;100905.34;5073793;28;20299;-80
2023/06/27 00:39:39;;;;;;;0.10;0.10;;;;;;;19.42;48.00;100902.44;5075605;28;20268;-82
2023/06/27 00:42:05;;;;;;;0.00;0.00;;;;;;;19.38;48.11;100899.38;5076248;28;20478;-82
2023/06/27 00:44:30;;;;;;;0.00;0.00;;;;;;;19.36;48.48;100909.47;5077183;28;20032;-81
2023/06/27 00:46:55;;;;;;;0.10;0.10;;;;;;;19.33;48.18;100909.00;5076419;28;20078;-82
2023/06/27 00:49:21;;;;;;;0.05;0.05;;;;;;;19.22;48.89;100913.94;5074621;28;20587;-82
2023/06/27 00:51:48;;;;;;;0.10;0.10;;;;;;;19.15;49.23;100915.75;5074178;28;20048;-82
2023/06/27 00:54:16;;;;;;;0.10;0.10;;;;;;;19.07;49.38;100916.75;5072887;28;20123;-82
2023/06/27 00:56:41;;;;;;;0.10;0.10;;;;;;;19.05;48.70;100918.78;5075491;28;20028;-82
2023/06/27 00:59:08;;;;;;;0.10;0.10;;;;;;;19.03;48.84;100915.47;5075140;28;20524;-81
2023/06/27 01:01:33;;;;;;;0.10;0.10;;;;;;;18.99;48.63;100919.56;5073729;28;20075;-81
2023/06/27 01:03:58;;;;;;;0.10;0.10;;;;;;;18.95;48.92;100917.47;5066485;28;20024;-82
2023/06/27 01:06:33;;;;;;;0.08;0.08;;;;;;;18.92;48.41;100916.03;5074347;28;20032;-82
2023/06/27 01:09:23;;;;;;;0.10;0.10;;;;;;;18.86;49.84;100912.28;5074711;28;20059;-82
2023/06/27 01:12:00;;;;;;;0.10;0.10;;;;;;;18.81;49.48;100913.91;5068326;28;20058;-82
2023/06/27 01:14:27;;;;;;;0.10;0.10;;;;;;;18.71;50.13;100914.25;5073882;28;20116;-82
2023/06/27 01:16:53;;;;;;;0.10;0.10;;;;;;;18.63;49.72;100912.50;5069106;28;20038;-83
2023/06/27 01:19:22;;;;;;;0.10;0.10;;;;;;;18.60;50.18;100917.44;5074973;28;20393;-82
2023/06/27 01:21:56;;;;;;;0.10;0.10;;;;;;;18.55;51.50;100917.22;5074274;28;20033;-82
2023/06/27 01:24:25;;;;;;;0.10;0.10;;;;;;;18.44;51.51;100916.69;5071566;28;20393;-82
2023/06/27 01:26:51;;;;;;;0.10;0.10;;;;;;;18.43;50.24;100914.22;5073105;28;20452;-81
2023/06/27 01:29:16;;;;;;;0.10;0.10;;;;;;;18.40;51.15;100918.13;5074364;28;20096;-79
2023/06/27 01:31:51;;;;;;;0.10;0.10;;;;;;;18.39;50.54;100912.97;5075421;28;20075;-79
2023/06/27 01:34:20;;;;;;;0.10;0.10;;;;;;;18.41;50.85;100910.91;5071032;28;20282;-81
2023/06/27 01:36:54;;;;;;;0.10;0.10;;;;;;;18.39;50.80;100913.78;5072887;28;20066;-82
2023/06/27 01:39:25;;;;;;;0.10;0.10;;;;;;;18.38;50.26;100917.50;5072709;28;20071;-82
2023/06/27 01:41:57;;;;;;;0.10;0.10;;;;;;;18.34;51.11;100913.53;5072947;28;20039;-82
2023/06/27 01:44:24;;;;;;;0.10;0.10;;;;;;;18.25;51.30;100903.97;5073814;28;20048;-81
2023/06/27 01:46:51;;;;;;;0.10;0.10;;;;;;;18.19;51.27;100904.78;5075289;28;20021;-83
2023/06/27 01:49:16;;;;;;;0.10;0.10;;;;;;;18.08;51.40;100906.09;5074900;28;20024;-81
2023/06/27 01:51:42;;;;;;;0.10;0.10;;;;;;;18.01;52.92;100900.69;5068056;28;20393;-82
2023/06/27 01:54:07;;;;;;;0.10;0.10;;;;;;;17.94;52.89;100907.00;5063591;28;20482;-80
2023/06/27 01:56:33;;;;;;;0.10;0.10;;;;;;;17.91;51.69;100913.56;5073013;28;20086;-81
2023/06/27 01:58:58;;;;;;;0.10;0.10;;;;;;;17.82;52.82;100906.66;5073042;28;20036;-82
2023/06/27 02:01:23;;;;;;;0.10;0.10;;;;;;;17.71;53.97;100907.13;5081715;28;20037;-80
2023/06/27 02:03:48;;;;;;;0.10;0.10;;;;;;;17.74;52.93;100909.44;5080490;28;20607;-83
2023/06/27 02:06:15;;;;;;;0.10;0.10;;;;;;;17.72;53.11;100898.91;5079817;28;20313;-81
2023/06/27 02:08:40;;;;;;;0.10;0.10;;;;;;;17.68;54.66;100910.19;5079953;28;20051;-81
2023/06/27 02:11:06;;;;;;;0.10;0.10;;;;;;;17.67;52.88;100898.66;5079148;28;20025;-82
2023/06/27 02:13:36;;;;;;;0.10;0.10;;;;;;;17.61;55.43;100902.94;5077163;28;20040;-83
2023/06/27 02:16:01;;;;;;;0.10;0.10;;;;;;;17.61;53.06;100905.63;5076860;28;20328;-83
2023/06/27 02:18:26;;;;;;;0.10;0.10;;;;;;;17.55;55.55;100901.00;5077716;28;20589;-82
2023/06/27 02:20:52;;;;;;;0.10;0.10;;;;;;;17.49;54.12;100900.91;5077608;28;20087;-78
2023/06/27 02:23:17;;;;;;;0.10;0.10;;;;;;;17.44;53.96;100898.00;5076965;28;20078;-82
2023/06/27 02:25:43;;;;;;;0.10;0.10;;;;;;;17.39;56.23;100903.91;5074479;28;20282;-80
2023/06/27 02:28:08;;;;;;;0.10;0.10;;;;;;;17.36;54.28;100912.28;5074485;28;20029;-80
2023/06/27 02:30:34;;;;;;;0.10;0.10;;;;;;;17.31;55.02;100906.69;5067036;28;20036;-78
2023/06/27 02:32:59;;;;;;;0.10;0.10;;;;;;;17.26;55.41;100912.59;5073936;28;20033;-80
2023/06/27 02:35:24;;;;;;;0.10;0.10;;;;;;;17.23;56.38;100906.78;5073210;28;20043;-80
2023/06/27 02:37:49;;;;;;;0.10;0.10;;;;;;;17.17;55.71;100909.19;5072632;28;20498;-79
2023/06/27 02:40:15;;;;;;;0.10;0.10;;;;;;;17.07;56.98;100913.97;5074430;28;20029;-79
2023/06/27 02:42:40;;;;;;;0.10;0.10;;;;;;;17.07;55.62;100907.81;5073384;28;20386;-79
2023/06/27 02:45:06;;;;;;;0.10;0.10;;;;;;;17.08;55.48;100912.97;5074925;28;20032;-80
2023/06/27 02:47:31;;;;;;;0.10;0.10;;;;;;;17.06;55.52;100912.31;5073888;28;20024;-80
2023/06/27 02:49:56;;;;;;;0.10;0.10;;;;;;;17.02;56.12;100903.03;5074996;28;20025;-79
2023/06/27 02:52:21;;;;;;;0.10;0.10;;;;;;;17.01;55.36;100903.19;5073230;28;22606;-80
2023/06/27 02:54:48;;;;;;;0.10;0.10;;;;;;;16.94;55.62;100898.59;5074808;28;20779;-79
2023/06/27 02:57:13;;;;;;;0.10;0.10;;;;;;;16.91;55.53;100895.47;5075289;28;20323;-80
2023/06/27 02:59:39;;;;;;;0.10;0.10;;;;;;;16.85;56.19;100898.84;5076360;28;20032;-80
2023/06/27 03:02:04;;;;;;;0.10;0.10;;;;;;;16.75;57.42;100905.25;5075716;28;20035;-79
2023/06/27 03:04:29;;;;;;;0.10;0.10;;;;;;;16.66;57.25;100910.88;5075384;28;20174;-81
2023/06/27 03:06:55;;;;;;;0.10;0.10;;;;;;;16.59;56.95;100913.47;5067687;28;20620;-79
2023/06/27 03:09:20;;;;;;;0.10;0.10;;;;;;;16.52;57.80;100908.03;5074063;28;20275;-80
2023/06/27 03:11:46;;;;;;;0.10;0.10;;;;;;;16.49;56.96;100907.53;5073784;28;20103;-79
2023/06/27 03:14:11;;;;;;;0.10;0.10;;;;;;;16.45;58.29;100903.59;5066506;28;20029;-79
2023/06/27 03:16:36;;;;;;;0.10;0.10;;;;;;;16.42;57.98;100914.59;5075253;28;20047;-80
2023/06/27 03:19:02;;;;;;;0.10;0.10;;;;;;;16.42;56.99;100907.44;5075651;28;20497;-79
2023/06/27 03:21:27;;;;;;;0.10;0.10;;;;;;;16.42;57.13;100914.59;5076048;28;20119;-80
2023/06/27 03:23:52;;;;;;;0.10;0.10;;;;;;;16.40;58.34;100919.28;5075548;28;20105;-80
2023/06/27 03:26:17;;;;;;;0.10;0.10;;;;;;;16.40;58.05;100921.97;5077655;28;20036;-80
2023/06/27 03:28:43;;;;;;;0.10;0.10;;;;;;;16.35;59.17;100918.00;5076401;28;20092;-80
2023/06/27 03:31:08;;;;;;;0.10;0.10;;;;;;;16.33;59.21;100928.03;5077707;28;20037;-79
2023/06/27 03:33:33;;;;;;;0.10;0.10;;;;;;;16.31;58.62;100922.03;5076052;28;20032;-80
2023/06/27 03:35:59;;;;;;;0.10;0.10;;;;;;;16.31;59.97;100923.88;5077497;28;20036;-80
2023/06/27 03:38:24;;;;;;;0.10;0.10;;;;;;;16.34;58.22;100931.53;5071353;28;20048;-79
2023/06/27 03:40:49;;;;;;;0.10;0.10;;;;;;;16.35;58.17;100930.50;5077763;28;20043;-80
2023/06/27 03:43:15;;;;;;;0.10;0.10;;;;;;;16.37;58.11;100927.66;5076739;28;20400;-80
2023/06/27 03:45:40;;;;;;;0.10;0.10;;;;;;;16.34;58.66;100927.00;5077145;28;20378;-79
2023/06/27 03:48:06;;;;;;;0.10;0.10;;;;;;;16.37;58.86;100933.81;5076667;28;20029;-80
2023/06/27 03:50:32;;;;;;;0.10;0.10;;;;;;;16.35;59.55;100927.84;5072890;28;20036;-80
2023/06/27 03:52:57;;;;;;;0.10;0.10;;;;;;;16.33;59.97;100930.69;5074668;28;20579;-80
2023/06/27 03:55:23;;;;;;;0.10;0.10;;;;;;;16.31;60.04;100934.56;5074980;28;20044;-80
2023/06/27 03:57:49;;;;;;;0.10;0.10;;;;;;;16.28;59.99;100927.75;5075411;28;20083;-79
2023/06/27 04:00:14;;;;;;;0.10;0.10;;;;;;;16.31;60.33;100934.56;5075102;28;20032;-79
2023/06/27 04:02:43;;;;;;;0.10;0.10;;;;;;;16.31;59.92;100943.41;5074066;28;20025;-80
2023/06/27 04:05:08;;;;;;;0.10;0.10;;;;;;;16.31;60.42;100950.56;5074786;28;20021;-80
2023/06/27 04:07:33;;;;;;;0.10;0.10;;;;;;;16.30;60.72;100948.91;5074214;28;20020;-79
2023/06/27 04:09:59;;;;;;;0.15;0.15;;;;;;;16.31;59.93;100955.91;5072979;28;20124;-78
2023/06/27 04:12:24;;;;;;;0.10;0.10;;;;;;;16.32;60.66;100945.03;5071987;28;20485;-80
2023/06/27 04:14:49;;;;;;;0.10;0.10;;;;;;;16.31;61.19;100962.06;5073340;28;20045;-79
2023/06/27 04:17:14;;;;;;;0.10;0.10;;;;;;;16.28;61.61;100962.44;5072857;28;20078;-80
2023/06/27 04:19:40;;;;;;;0.15;0.15;;;;;;;16.28;61.38;100966.91;5073577;28;20032;-79
2023/06/27 04:22:05;;;;;;;0.10;0.10;;;;;;;16.28;61.15;100965.09;5072178;28;20028;-79
2023/06/27 04:24:33;;;;;;;0.10;0.10;;;;;;;16.32;60.60;100969.06;5072860;28;20332;-79
2023/06/27 04:26:58;;;;;;;0.10;0.10;;;;;;;16.36;60.87;100956.19;5073876;28;20020;-79
2023/06/27 04:29:24;;;;;;;0.10;0.10;;;;;;;16.39;61.19;100958.50;5072055;28;20029;-79
2023/06/27 04:31:49;;;;;;;0.10;0.10;;;;;;;16.43;60.96;100964.34;5074058;28;20111;-81
2023/06/27 04:34:14;;;;;;;0.10;0.10;;;;;;;16.47;60.52;100963.78;5072929;28;20039;-80
2023/06/27 04:36:41;;;;;;;0.10;0.10;;;;;;;16.54;60.90;100970.06;5074766;28;20149;-80
2023/06/27 04:39:08;;;;;;;0.10;0.10;;;;;;;16.57;60.61;100971.56;5065319;28;20037;-79
2023/06/27 04:41:33;;;;;;;0.10;0.10;;;;;;;16.63;60.29;100978.81;5073624;28;20590;-80
2023/06/27 04:43:59;;;;;;;0.10;0.10;;;;;;;16.65;60.94;100974.13;5064290;28;20033;-80
2023/06/27 04:46:28;;;;;;;0.10;0.10;;;;;;;16.71;60.66;100970.75;5071462;28;20036;-80
2023/06/27 04:49:02;;;;;;;0.10;0.10;;;;;;;16.77;60.32;100979.88;5072211;28;20496;-80
2023/06/27 04:51:29;;;;;;;0.10;0.10;;;;;;;16.81;60.29;100973.19;5071632;28;20039;-78
2023/06/27 04:53:54;;;;;;;0.10;0.10;;;;;;;16.87;60.90;100984.97;5072933;28;20078;-81
2023/06/27 04:56:20;;;;;;;0.10;0.10;;;;;;;16.89;60.65;100981.13;5065259;28;20036;-80
2023/06/27 04:58:45;;;;;;;0.10;0.10;;;;;;;16.96;59.99;100979.38;5074157;28;20024;-81
2023/06/27 05:01:10;;;;;;;0.10;0.10;;;;;;;17.02;60.13;100972.50;5072272;28;20040;-79
2023/06/27 05:03:39;;;;;;;0.10;0.10;;;;;;;17.09;60.49;100975.25;5072889;28;20055;-80
2023/06/27 05:06:05;;;;;;;0.10;0.10;;;;;;;17.24;59.52;100976.09;5072258;28;20425;-80
2023/06/27 05:08:30;;;;;;;0.10;0.10;;;;;;;17.34;59.01;100970.47;5070979;28;20056;-80
2023/06/27 05:10:56;;;;;;;0.10;0.10;;;;;;;17.45;59.41;100978.03;5073266;28;20028;-79
2023/06/27 05:13:22;;;;;;;0.10;0.10;;;;;;;17.51;58.67;100982.59;5072286;28;20037;-80
2023/06/27 05:15:47;;;;;;;0.10;0.10;;;;;;;17.61;58.06;100979.63;5073441;28;20032;-79
2023/06/27 05:18:13;;;;;;;0.10;0.10;;;;;;;17.68;57.77;100987.75;5072871;28;20028;-80
2023/06/27 05:20:39;;;;;;;0.10;0.10;;;;;;;17.78;57.63;100980.25;5073775;28;20039;-81
2023/06/27 05:23:05;;;;;;;0.10;0.10;;;;;;;17.93;56.30;100980.25;5072072;28;20028;-79
2023/06/27 05:25:31;;;;;;;0.10;0.10;;;;;;;18.01;55.90;100986.31;5072496;28;20032;-80
2023/06/27 05:27:57;;;;;;;0.10;0.10;;;;;;;18.11;56.54;100985.19;5073340;28;20020;-79
2023/06/27 05:30:23;;;;;;;0.10;0.10;;;;;;;18.26;55.51;100985.97;5071452;28;20058;-80
2023/06/27 05:32:49;;;;;;;0.10;0.10;;;;;;;18.38;55.35;100978.25;5074320;28;20478;-80
2023/06/27 05:35:14;;;;;;;0.10;0.10;;;;;;;18.54;55.45;100991.34;5074926;28;20044;-80
2023/06/27 05:37:40;;;;;;;0.10;0.10;;;;;;;18.62;55.42;100993.09;5073156;28;20055;-80
2023/06/27 05:40:06;;;;;;;0.10;0.10;;;;;;;18.77;54.85;100998.38;5073446;28;20075;-79
2023/06/27 05:42:31;;;;;;;0.10;0.10;;;;;;;18.94;55.18;100985.50;5073884;28;20039;-80
2023/06/27 05:45:03;;;;;;;0.10;0.10;;;;;;;18.97;54.22;100990.47;5066322;28;20055;-81
2023/06/27 05:47:29;;;;;;;0.10;0.10;;;;;;;18.91;54.16;100981.38;5074620;28;20529;-81
2023/06/27 05:49:54;;;;;;;0.10;0.10;;;;;;;19.02;56.00;100982.69;5070715;28;20044;-80
2023/06/27 05:52:22;;;;;;;0.10;0.10;;;;;;;19.10;54.21;100988.72;5071023;28;20036;-83
2023/06/27 05:54:48;;;;;;;0.10;0.10;;;;;;;19.31;53.29;100993.19;5075152;28;20025;-83
2023/06/27 05:57:14;;;;;;;0.10;0.10;;;;;;;19.36;52.79;100991.75;5073088;28;20036;-82
2023/06/27 05:59:39;;;;;;;0.10;0.10;;;;;;;19.52;51.60;100991.41;5075618;28;20029;-82
2023/06/27 06:02:05;;;;;;;0.10;0.10;;;;;;;19.65;52.34;100996.03;5076701;28;20036;-83
2023/06/27 06:04:31;;;;;;;0.10;0.10;;;;;;;19.70;52.09;100991.72;5075436;28;20051;-82
2023/06/27 06:06:58;;;;;;;0.10;0.10;;;;;;;19.90;51.66;100996.34;5077006;28;20092;-81
2023/06/27 06:09:24;;;;;;;0.10;0.10;;;;;;;20.16;50.23;101000.94;5077975;28;20086;-81
2023/06/27 06:11:50;;;;;;;0.10;0.10;;;;;;;20.19;49.07;100994.34;5085025;28;20033;-81
2023/06/27 06:14:15;;;;;;;0.10;0.10;;;;;;;20.45;49.45;100997.09;5079477;28;20142;-81
2023/06/27 06:16:41;;;;;;;0.10;0.10;;;;;;;20.48;48.39;100999.34;5078547;28;20032;-81
2023/06/27 06:19:07;;;;;;;0.10;0.10;;;;;;;20.52;48.99;100994.38;5076254;28;20086;-81
2023/06/27 06:21:33;;;;;;;0.10;0.10;;;;;;;20.66;48.66;100996.06;5076867;28;20036;-81
2023/06/27 06:24:02;;;;;;;0.10;0.10;;;;;;;20.96;48.44;100993.78;5073036;28;20051;-81
2023/06/27 06:26:27;;;;;;;0.00;0.00;;;;;;;21.16;47.92;100990.22;5073960;28;20047;-81
2023/06/27 06:28:53;;;;;;;0.03;0.03;;;;;;;21.40;46.24;100977.97;5076160;28;20040;-79
2023/06/27 06:31:20;;;;;;;0.03;0.03;;;;;;;21.91;46.96;100981.72;5074439;28;20505;-79
2023/06/27 06:33:48;;;;;;;0.10;0.10;;;;;;;22.34;46.67;100983.75;5071425;28;20066;-80
2023/06/27 06:36:14;;;;;;;0.00;0.00;;;;;;;22.46;45.36;100990.91;5071967;28;20021;-79
2023/06/27 06:38:39;;;;;;;0.10;0.10;;;;;;;22.46;44.04;100988.22;5071686;28;20036;-79
2023/06/27 06:41:05;;;;;;;0.00;0.00;;;;;;;22.63;45.43;100985.78;5071673;28;20036;-78
2023/06/27 06:43:31;;;;;;;0.00;0.00;;;;;;;22.69;44.75;100995.69;5072415;28;20543;-79
2023/06/27 06:45:57;;;;;;;0.00;0.00;;;;;;;22.81;45.29;100987.72;5068195;28;20070;-80
2023/06/27 06:48:23;;;;;;;0.00;0.00;;;;;;;22.54;43.80;100994.38;5066958;28;20552;-82
2023/06/27 06:50:52;;;;;;;0.00;0.00;;;;;;;22.55;44.34;101004.94;5064211;28;20056;-80
2023/06/27 06:53:19;;;;;;;0.10;0.10;;;;;;;23.10;42.73;101007.78;5077742;28;20271;-79
2023/06/27 06:55:44;;;;;;;0.00;0.00;;;;;;;23.53;43.32;101006.91;5075162;28;20032;-82
2023/06/27 06:58:10;;;;;;;0.00;0.00;;;;;;;23.86;43.07;100999.44;5073117;28;20529;-79
2023/06/27 07:00:36;;;;;;;0.00;0.00;;;;;;;24.12;42.49;101003.66;5075278;28;20382;-79
2023/06/27 07:03:03;;;;;;;0.00;0.00;;;;;;;24.32;41.56;100996.09;5075752;28;20452;-78
2023/06/27 07:05:28;;;;;;;0.00;0.00;;;;;;;24.47;40.91;101000.28;5073456;28;20064;-78
2023/06/27 07:07:54;;;;;;;0.00;0.00;;;;;;;24.38;38.73;101005.16;5073598;28;20494;-80
2023/06/27 07:10:19;;;;;;;0.00;0.00;;;;;;;24.21;40.20;101004.16;5073027;28;20036;-80
2023/06/27 07:12:45;;;;;;;0.00;0.00;;;;;;;24.22;39.83;101000.41;5075319;28;20073;-79
2023/06/27 07:15:10;;;;;;;0.00;0.00;;;;;;;24.43;40.33;100999.03;5075666;28;20525;-80
2023/06/27 07:17:36;;;;;;;0.00;0.00;;;;;;;24.67;39.79;100999.94;5077584;28;20036;-79
2023/06/27 07:20:01;;;;;;;0.00;0.00;;;;;;;24.59;38.61;101001.09;5077358;28;20044;-80
2023/06/27 07:22:27;;;;;;;0.00;0.00;;;;;;;24.90;39.17;100993.72;5077684;28;20032;-79
2023/06/27 07:24:52;;;;;;;0.00;0.00;;;;;;;25.39;39.09;100995.09;5072429;28;20037;-80
2023/06/27 07:27:20;;;;;;;0.00;0.00;;;;;;;25.49;35.96;100999.09;5076931;28;20027;-81
2023/06/27 07:29:45;;;;;;;0.00;0.00;;;;;;;25.41;36.44;100998.41;5071037;28;20086;-81
2023/06/27 07:32:11;;;;;;;0.00;0.00;;;;;;;25.35;37.94;100996.63;5078309;28;20028;-80
2023/06/27 07:34:39;;;;;;;0.00;0.00;;;;;;;25.15;37.92;100993.47;5068634;28;20036;-80
2023/06/27 07:37:07;;;;;;;0.00;0.00;;;;;;;24.82;38.04;100992.19;5071479;28;20033;-79
2023/06/27 07:39:33;;;;;;;0.00;0.00;;;;;;;24.44;38.55;100990.72;5071822;28;20043;-80
2023/06/27 07:41:58;;;;;;;0.00;0.00;;;;;;;24.44;39.07;100990.72;5077375;28;20410;-79
2023/06/27 07:44:27;;;;;;;0.00;0.00;;;;;;;24.88;39.05;100985.00;5072674;28;20040;-78
2023/06/27 07:46:53;;;;;;;0.00;0.00;;;;;;;25.48;36.84;100984.75;5068737;28;20032;-79
2023/06/27 07:49:18;;;;;;;0.00;0.00;;;;;;;26.19;37.01;100981.75;5077648;28;20024;-81
2023/06/27 07:51:45;;;;;;;0.00;0.00;;;;;;;26.97;37.09;100971.06;5080071;28;20501;-81
2023/06/27 07:54:11;;;;;;;0.00;0.00;;;;;;;27.06;34.10;100966.84;5075150;28;20028;-81
2023/06/27 07:56:36;;;;;;;0.00;0.00;;;;;;;27.14;32.63;100957.44;5056853;28;20513;-80
2023/06/27 07:59:04;;;;;;;0.00;0.00;;;;;;;27.74;33.37;100961.97;5072082;28;20044;-81
2023/06/27 08:01:30;;;;;;;0.00;0.00;;;;;;;28.08;31.93;100968.06;5078301;28;20073;-81
2023/06/27 08:03:55;;;;;;;0.00;0.00;;;;;;;28.11;31.84;100972.97;5077063;28;20484;-81
2023/06/27 08:06:20;;;;;;;0.00;0.00;;;;;;;28.16;30.09;100967.59;5075790;28;20036;-80
2023/06/27 08:08:46;;;;;;;0.00;0.00;;;;;;;28.36;30.05;100960.69;5077305;28;20509;-79
2023/06/27 08:11:12;;;;;;;0.00;0.00;;;;;;;28.21;30.10;100955.94;5075282;28;20397;-80
2023/06/27 08:13:42;;;;;;;0.00;0.00;;;;;;;28.36;29.41;100955.22;5077705;28;20025;-80
2023/06/27 08:16:09;;;;;;;0.00;0.00;;;;;;;28.73;29.50;100951.72;5068590;28;20459;-79
2023/06/27 08:18:34;;;;;;;0.00;0.00;;;;;;;28.75;29.89;100960.47;5070027;28;20169;-79
2023/06/27 08:21:00;;;;;;;0.00;0.00;;;;;;;29.09;29.64;100950.03;5076041;28;20075;-79
2023/06/27 08:23:26;;;;;;;0.00;0.00;;;;;;;29.34;29.90;100941.19;5076394;28;20181;-80
2023/06/27 08:25:54;;;;;;;0.00;0.00;;;;;;;30.14;28.78;100946.25;5076720;28;20097;-80
2023/06/27 08:28:22;;;;;;;0.00;0.00;;;;;;;30.14;28.50;100938.06;5078001;28;20032;-80
2023/06/27 08:30:48;;;;;;;0.00;0.00;;;;;;;30.05;28.81;100939.69;5078224;28;20472;-81
2023/06/27 08:33:14;;;;;;;0.00;0.00;;;;;;;30.50;28.61;100940.78;5079032;28;20033;-79
2023/06/27 08:35:39;;;;;;;0.00;0.00;;;;;;;31.03;26.33;100943.13;5076881;28;20037;-80
2023/06/27 08:38:05;;;;;;;0.00;0.00;;;;;;;31.09;25.39;100933.84;5070217;28;20085;-80
2023/06/27 08:40:37;;;;;;;0.00;0.00;;;;;;;31.35;25.96;100931.81;5075004;28;20039;-81
2023/06/27 08:43:07;;;;;;;0.00;0.00;;;;;;;31.70;25.31;100924.50;5077821;28;20028;-80
2023/06/27 08:45:35;;;;;;;0.00;0.00;;;;;;;31.92;25.27;100930.38;5075029;28;20138;-79
2023/06/27 08:48:02;;;;;;;0.00;0.00;;;;;;;32.15;25.25;100930.75;5076276;28;20032;-80
2023/06/27 08:50:29;;;;;;;0.00;0.00;;;;;;;31.94;24.28;100928.19;5072180;28;20047;-80
2023/06/27 08:52:56;;;;;;;0.00;0.00;;;;;;;32.21;24.60;100921.41;5076055;28;20060;-79
2023/06/27 08:55:37;;;;;;;0.00;0.00;;;;;;;31.40;25.47;100918.16;5076489;28;20501;-80
2023/06/27 08:58:04;;;;;;;0.00;0.00;;;;;;;31.29;25.89;100916.53;5077683;28;20043;-79
2023/06/27 09:00:30;;;;;;;0.00;0.00;;;;;;;31.72;25.38;100911.38;5077411;28;20032;-80
2023/06/27 09:02:59;;;;;;;0.00;0.00;;;;;;;32.27;25.22;100912.03;5076631;28;20032;-80
2023/06/27 09:05:25;;;;;;;0.00;0.00;;;;;;;33.10;24.86;100918.31;5074473;28;20064;-80
2023/06/27 09:07:51;;;;;;;0.00;0.00;;;;;;;33.57;24.40;100908.38;5072073;28;20530;-79
2023/06/27 09:10:16;;;;;;;0.00;0.00;;;;;;;33.54;24.24;100905.41;5073333;28;20059;-79
2023/06/27 09:12:47;;;;;;;0.00;0.00;;;;;;;34.18;23.23;100906.59;5067403;28;20044;-80
2023/06/27 09:15:15;;;;;;;;;;;;;;;34.83;21.55;100902.91;5041693;28;20709;-79
2023/06/27 09:17:40;;;;;;;;;;;;;;;34.41;22.40;100913.03;5075045;28;20423;-80
2023/06/27 09:20:07;;;;;;;;;;;;;;;33.38;22.80;100907.53;5073233;28;19913;-80
2023/06/27 09:22:33;;;;;;;;;;;;;;;33.24;22.38;100910.19;5075250;28;19948;-81
2023/06/27 09:25:11;;;;;;;;;;;;;;;33.36;23.01;100904.28;5071069;28;19913;-81
2023/06/27 09:27:37;;;;;;;;;;;;;;;33.42;22.23;100897.63;5074103;28;19912;-81
2023/06/27 09:30:04;;;;;;;;;;;;;;;32.61;22.76;100894.78;5072934;28;20446;-81
2023/06/27 09:32:29;;;;;;;;;;;;;;;31.33;24.25;100893.81;5061244;28;19924;-80
2023/06/27 09:34:58;;;;;;;;;;;;;;;30.27;26.79;100898.50;5051858;28;20457;-81
2023/06/27 09:37:28;;;;;;;;;;;;;;;29.31;26.97;100894.56;5069248;28;19916;-80
2023/06/27 09:39:54;;;;;;;;;;;;;;;29.31;27.07;100889.13;5070885;28;19981;-80
2023/06/27 09:42:19;;;;;;;;;;;;;;;29.52;26.42;100888.06;5070485;28;19917;-81
2023/06/27 09:44:44;;;;;;;;;;;;;;;29.29;26.49;100891.28;5067886;28;20232;-80
2023/06/27 09:47:11;;;;;;;;;;;;;;;29.52;26.35;100887.25;5072364;28;19924;-81
2023/06/27 09:49:41;;;;;;;;;;;;;;;30.18;26.14;100884.59;5070729;28;20285;-81
2023/06/27 09:52:08;;;;;;;;;;;;;;;31.11;24.69;100893.41;5065674;28;19921;-81
2023/06/27 09:54:40;;;;;;;0.00;0.00;;;;;;;31.48;24.82;100889.41;5069622;28;20127;-80
2023/06/27 09:57:14;;;;;;;0.00;0.00;;;;;;;32.30;24.06;100886.84;5073677;28;20040;-80
2023/06/27 09:59:39;;;;;;;0.00;0.00;;;;;;;33.30;23.26;100894.47;5078657;28;20044;-81
2023/06/27 10:02:14;;;;;;;0.00;0.00;;;;;;;33.31;22.21;100893.38;5079940;28;20037;-81
2023/06/27 10:04:39;;;;;;;0.00;0.00;;;;;;;33.84;22.32;100890.41;5074862;28;20068;-80
2023/06/27 10:07:07;;;;;;;0.00;0.00;;;;;;;34.19;22.20;100891.75;5074481;28;20549;-81
2023/06/27 10:09:37;;;;;;;0.00;0.00;;;;;;;33.85;21.35;100881.06;5053405;28;20036;-81
2023/06/27 10:12:03;;;;;;;0.00;0.00;;;;;;;33.15;22.24;100890.84;5060981;28;20461;-80
2023/06/27 10:14:29;;;;;;;0.00;0.00;;;;;;;32.33;22.75;100894.47;5060695;28;20346;-82
2023/06/27 10:16:55;;;;;;;0.00;0.00;;;;;;;31.81;23.32;100896.00;5069785;28;20472;-80
2023/06/27 10:19:21;;;;;;;0.00;0.00;;;;;;;31.84;23.65;100898.16;5069854;28;20041;-82
2023/06/27 10:21:48;;;;;;;0.00;0.00;;;;;;;32.03;23.69;100895.56;5075359;28;20028;-81
2023/06/27 10:24:14;;;;;;;0.00;0.00;;;;;;;30.90;24.59;100896.22;5072589;28;20047;-82
2023/06/27 10:26:40;;;;;;;0.00;0.00;;;;;;;29.82;25.70;100894.69;5072598;28;20033;-81
2023/06/27 10:29:15;;;;;;;0.00;0.00;;;;;;;29.37;26.46;100888.06;5070756;28;20043;-82
2023/06/27 10:31:44;;;;;;;0.00;0.00;;;;;;;29.33;26.55;100874.13;5073763;28;20059;-80
2023/06/27 10:34:20;;;;;;;0.00;0.00;;;;;;;29.49;25.97;100876.91;5074854;28;20040;-81
2023/06/27 10:36:49;;;;;;;0.00;0.00;;;;;;;29.77;26.01;100884.63;5072851;28;20406;-81
2023/06/27 10:39:31;;;;;;;0.00;0.00;;;;;;;29.46;26.84;100886.41;5071051;28;20044;-79
2023/06/27 10:42:06;;;;;;;0.00;0.00;;;;;;;28.50;27.69;100901.25;5067997;28;20037;-80
2023/06/27 10:44:48;;;;;;;0.00;0.00;;;;;;;28.07;27.79;100892.19;5072491;28;20520;-80
2023/06/27 10:47:17;;;;;;;0.00;0.00;;;;;;;27.65;30.05;100899.13;5069424;28;20135;-79
2023/06/27 10:49:46;;;;;;;0.00;0.00;;;;;;;27.66;29.50;100902.66;5076779;28;20094;-80
2023/06/27 10:52:20;;;;;;;0.00;0.00;;;;;;;27.66;29.03;100895.34;5054361;28;20464;-79
2023/06/27 10:54:48;;;;;;;0.00;0.00;;;;;;;28.15;28.21;100897.97;5057768;28;20063;-81
2023/06/27 10:57:16;;;;;;;0.00;0.00;;;;;;;28.25;28.86;100899.16;5062049;28;20037;-80
2023/06/27 10:59:45;;;;;;;0.00;0.00;;;;;;;28.36;28.63;100898.97;5070847;28;20033;-81
2023/06/27 11:02:12;;;;;;;0.00;0.00;;;;;;;28.45;28.92;100895.72;5055989;28;20112;-80
2023/06/27 11:04:42;;;;;;;0.00;0.00;;;;;;;28.23;29.09;100887.69;5055736;28;20122;-83
2023/06/27 11:07:10;;;;;;;0.00;0.00;;;;;;;28.21;28.10;100885.22;5071384;28;20029;-84
2023/06/27 11:09:37;;;;;;;0.00;0.00;;;;;;;27.71;28.29;100880.97;5066922;28;20608;-83
2023/06/27 11:12:15;;;;;;;0.00;0.00;;;;;;;27.19;29.22;100876.91;5077521;28;20036;-83
2023/06/27 11:14:43;;;;;;;0.00;0.00;;;;;;;27.10;29.68;100873.81;5073307;28;20034;-83
2023/06/27 11:17:09;;;;;;;0.00;0.00;;;;;;;26.89;30.35;100869.19;5076159;28;20040;-82
2023/06/27 11:19:38;;;;;;;0.00;0.00;;;;;;;26.94;30.14;100868.44;5069026;28;20060;-82
2023/06/27 11:22:04;;;;;;;0.00;0.00;;;;;;;26.88;30.41;100865.63;5073389;28;20097;-83
2023/06/27 11:24:30;;;;;;;0.00;0.00;;;;;;;27.01;30.89;100866.34;5077250;28;20092;-82
2023/06/27 11:26:56;;;;;;;0.00;0.00;;;;;;;26.88;30.72;100864.81;5076895;28;20024;-82